Time;durP1;ratioP1;P1;durP2;ratioP2;P2;SDS_P1;SDS_P2;PMS_P1;PMS_P2;Temp;Humidity;BMP_temperature;BMP_pressure;BME280_temperature;BME280_humidity;BME280_pressure;Samples;Min_cycle;Max_cycle;Signal;HPM_P1;HPM_P2
2022/01/05 00:02:11;;;;;;;0.93;0.55;;;5.00;99.90;;;;;;5057017;28;20169;-84
2022/01/05 00:04:37;;;;;;;0.40;0.40;;;5.00;99.90;;;;;;5059346;28;20631;-83
2022/01/05 00:07:04;;;;;;;1.23;0.67;;;5.10;99.90;;;;;;5058569;28;20647;-84
2022/01/05 00:09:30;;;;;;;3.63;0.80;;;5.10;99.90;;;;;;5059197;28;20594;-85
2022/01/05 00:11:56;;;;;;;1.02;0.60;;;5.10;99.90;;;;;;5057439;28;20173;-84
2022/01/05 00:14:22;;;;;;;1.00;0.77;;;5.10;99.90;;;;;;5059070;28;20227;-84
2022/01/05 00:16:47;;;;;;;0.60;0.60;;;5.20;99.90;;;;;;5073686;28;20455;-84
2022/01/05 00:19:13;;;;;;;1.07;0.50;;;5.20;99.90;;;;;;5057927;28;20197;-83
2022/01/05 00:21:40;;;;;;;1.00;0.50;;;5.20;99.90;;;;;;5074938;28;20268;-84
2022/01/05 00:24:07;;;;;;;0.70;0.70;;;5.30;99.90;;;;;;5073375;28;20174;-85
2022/01/05 00:26:33;;;;;;;0.95;0.50;;;5.30;99.90;;;;;;5074133;28;20678;-85
2022/01/05 00:29:00;;;;;;;0.50;0.50;;;5.40;99.90;;;;;;5073179;28;20196;-82
2022/01/05 00:31:28;;;;;;;1.40;1.30;;;5.40;99.90;;;;;;5073129;28;20188;-84
2022/01/05 00:33:54;;;;;;;1.58;0.98;;;5.40;99.90;;;;;;5058689;28;20184;-86
2022/01/05 00:36:21;;;;;;;0.90;0.45;;;;;;;;;;5067998;28;20220;-80
2022/01/05 00:38:47;;;;;;;2.97;1.08;;;5.40;99.90;;;;;;5060531;28;20531;-85
2022/01/05 00:41:13;;;;;;;0.40;0.30;;;5.30;99.90;;;;;;5065194;28;20275;-83
2022/01/05 00:43:39;;;;;;;1.10;0.30;;;5.30;99.90;;;;;;5067727;28;20264;-85
2022/01/05 00:46:05;;;;;;;0.50;0.40;;;5.30;99.90;;;;;;5059215;28;20188;-82
2022/01/05 00:48:32;;;;;;;0.73;0.63;;;5.30;99.90;;;;;;5061402;28;20197;-86
2022/01/05 00:51:02;;;;;;;0.55;0.45;;;5.30;99.90;;;;;;5060994;28;20204;-86
2022/01/05 00:53:27;;;;;;;0.60;0.30;;;6.00;99.90;;;;;;5058419;28;20169;-86
2022/01/05 00:55:53;;;;;;;0.63;0.60;;;5.30;99.90;;;;;;5063483;28;20239;-84
2022/01/05 00:58:18;;;;;;;0.97;0.40;;;5.20;99.90;;;;;;5063184;28;20223;-88
2022/01/05 01:00:44;;;;;;;0.80;0.53;;;5.20;99.90;;;;;;5061404;28;20183;-83
2022/01/05 01:03:09;;;;;;;0.50;0.50;;;5.20;99.90;;;;;;5058965;28;20237;-84
2022/01/05 01:05:36;;;;;;;0.90;0.40;;;5.10;99.90;;;;;;5064623;28;20238;-85
2022/01/05 01:08:02;;;;;;;1.40;0.50;;;5.20;99.90;;;;;;5058988;28;20208;-83
2022/01/05 01:10:27;;;;;;;0.40;0.30;;;5.20;99.90;;;;;;5062455;28;20552;-85
2022/01/05 01:12:53;;;;;;;0.50;0.50;;;5.10;99.90;;;;;;5065676;28;20448;-86
2022/01/05 01:15:18;;;;;;;1.70;0.50;;;5.20;99.90;;;;;;5064076;28;20200;-84
2022/01/05 01:17:44;;;;;;;0.93;0.57;;;5.20;99.90;;;;;;5063245;28;20207;-87
2022/01/05 01:20:10;;;;;;;1.50;0.40;;;5.20;99.90;;;;;;5061622;28;20180;-86
2022/01/05 01:22:36;;;;;;;0.60;0.50;;;5.20;99.90;;;;;;5059969;28;20181;-86
2022/01/05 01:25:03;;;;;;;0.63;0.40;;;5.20;99.90;;;;;;5064478;28;20736;-84
2022/01/05 01:27:29;;;;;;;0.40;0.40;;;5.20;99.90;;;;;;5059822;28;20858;-84
2022/01/05 01:29:55;;;;;;;1.60;0.50;;;;;;;;;;5060239;28;20280;-83
2022/01/05 01:32:21;;;;;;;0.93;0.52;;;5.20;99.90;;;;;;5058027;28;20184;-83
2022/01/05 01:34:47;;;;;;;0.40;0.40;;;;;;;;;;5059120;28;20717;-83
2022/01/05 01:37:13;;;;;;;0.97;0.50;;;;;;;;;;5058082;28;20288;-85
2022/01/05 01:39:38;;;;;;;0.50;0.33;;;;;;;;;;5053284;28;20435;-86
2022/01/05 01:42:05;;;;;;;0.97;0.60;;;;;;;;;;5057758;28;20430;-87
2022/01/05 01:44:32;;;;;;;0.88;0.88;;;5.20;99.90;;;;;;5057580;28;20434;-87
2022/01/05 01:46:57;;;;;;;1.00;0.68;;;;;;;;;;5057227;28;20967;-84
2022/01/05 01:49:23;;;;;;;2.30;0.50;;;;;;;;;;5058552;28;20197;-85
2022/01/05 01:51:49;;;;;;;1.35;0.70;;;5.20;99.90;;;;;;5056262;28;20492;-86
2022/01/05 01:54:15;;;;;;;0.87;0.40;;;;;;;;;;5056667;28;20180;-85
2022/01/05 01:56:43;;;;;;;0.60;0.47;;;5.30;99.90;;;;;;5057794;28;20232;-86
2022/01/05 01:59:09;;;;;;;0.40;0.40;;;;;;;;;;5057542;28;20475;-89
2022/01/05 02:01:35;;;;;;;1.50;0.47;;;;;;;;;;5061634;28;20188;-84
2022/01/05 02:04:01;;;;;;;0.50;0.50;;;;;;;;;;5068445;28;20419;-86
2022/01/05 02:06:27;;;;;;;1.80;0.73;;;5.40;99.90;;;;;;5064323;28;20438;-84
2022/01/05 02:08:52;;;;;;;2.30;0.60;;;5.40;99.90;;;;;;5064670;28;20549;-86
2022/01/05 02:11:19;;;;;;;1.90;0.80;;;5.40;99.90;;;;;;5062759;28;20195;-86
2022/01/05 02:13:45;;;;;;;1.80;0.70;;;5.40;99.90;;;;;;5061997;28;20184;-85
2022/01/05 02:16:13;;;;;;;1.63;0.47;;;5.40;99.90;;;;;;5067032;28;20334;-84
2022/01/05 02:21:14;;;;;;;0.67;0.57;;;5.50;99.90;;;;;;5064536;28;20190;-87
2022/01/05 02:23:39;;;;;;;0.50;0.47;;;5.50;99.90;;;;;;5063919;28;20196;-87
2022/01/05 02:26:06;;;;;;;1.60;0.50;;;5.60;99.90;;;;;;5069649;28;20250;-86
2022/01/05 02:28:32;;;;;;;3.15;0.50;;;5.70;99.90;;;;;;5064342;28;20208;-87
2022/01/05 02:30:58;;;;;;;3.10;0.80;;;5.70;99.90;;;;;;5062886;28;20185;-85
2022/01/05 02:33:24;;;;;;;1.03;0.77;;;5.60;99.90;;;;;;5070563;28;20525;-85
2022/01/05 02:35:51;;;;;;;2.25;0.60;;;5.80;99.90;;;;;;5065340;28;20254;-87
2022/01/05 02:38:18;;;;;;;0.93;0.60;;;5.80;99.90;;;;;;5064740;28;20193;-87
2022/01/05 02:40:44;;;;;;;1.27;0.52;;;5.90;99.90;;;;;;5063957;28;20180;-87
2022/01/05 02:43:09;;;;;;;0.90;0.70;;;5.90;99.90;;;;;;5066463;28;20196;-83
2022/01/05 02:45:35;;;;;;;1.80;0.70;;;6.00;99.90;;;;;;5063514;28;20173;-87
2022/01/05 02:48:00;;;;;;;0.73;0.50;;;6.00;99.90;;;;;;5063509;28;20233;-85
2022/01/05 02:50:26;;;;;;;2.83;0.80;;;6.00;99.90;;;;;;5062315;28;20181;-85
2022/01/05 02:52:53;;;;;;;0.70;0.70;;;6.10;99.90;;;;;;5061984;28;20180;-84
2022/01/05 02:55:18;;;;;;;0.75;0.50;;;6.10;99.90;;;;;;5059619;28;20235;-86
2022/01/05 02:57:44;;;;;;;0.60;0.60;;;6.10;99.90;;;;;;5055444;28;20219;-87
2022/01/05 03:00:12;;;;;;;1.03;0.90;;;6.10;99.90;;;;;;5059216;28;20192;-81
2022/01/05 03:02:38;;;;;;;0.93;0.60;;;6.10;99.90;;;;;;5059321;28;20177;-86
2022/01/05 03:05:04;;;;;;;1.47;0.63;;;6.00;99.90;;;;;;5054911;28;20698;-82
2022/01/05 03:07:31;;;;;;;2.80;0.90;;;6.20;99.90;;;;;;5064797;28;21108;-85
2022/01/05 03:09:57;;;;;;;1.50;0.63;;;;;;;;;;5057760;28;20211;-86
2022/01/05 03:12:23;;;;;;;1.63;0.70;;;;;;;;;;5059319;28;20176;-87
2022/01/05 03:14:49;;;;;;;2.20;0.70;;;6.20;99.90;;;;;;5066434;28;20435;-84
2022/01/05 03:17:14;;;;;;;1.90;0.90;;;;;;;;;;5054744;28;20459;-84
2022/01/05 03:19:40;;;;;;;0.73;0.50;;;;;;;;;;5058540;28;20176;-83
2022/01/05 03:22:06;;;;;;;0.73;0.50;;;6.20;99.90;;;;;;5055164;28;20438;-83
2022/01/05 03:24:32;;;;;;;0.80;0.60;;;;;;;;;;5052121;28;20459;-88
2022/01/05 03:26:57;;;;;;;1.33;0.77;;;6.30;99.90;;;;;;5073805;28;20594;-86
2022/01/05 03:29:23;;;;;;;0.70;0.60;;;6.30;99.90;;;;;;5062293;28;20484;-86
2022/01/05 03:31:49;;;;;;;0.60;0.60;;;6.30;99.90;;;;;;5066367;28;20173;-86
2022/01/05 03:34:18;;;;;;;4.07;0.47;;;6.30;99.90;;;;;;5073208;28;20441;-87
2022/01/05 03:36:44;;;;;;;1.60;0.55;;;6.30;99.90;;;;;;5064481;28;20463;-85
2022/01/05 03:39:10;;;;;;;0.73;0.50;;;6.30;99.90;;;;;;5059546;28;20285;-86
2022/01/05 03:41:36;;;;;;;1.10;1.00;;;;;;;;;;5077778;28;20426;-82
2022/01/05 03:44:02;;;;;;;0.90;0.50;;;6.30;99.90;;;;;;5075135;28;20188;-82
2022/01/05 03:46:28;;;;;;;0.47;0.43;;;;;;;;;;5065965;28;20493;-86
2022/01/05 03:48:53;;;;;;;2.20;0.80;;;6.20;99.90;;;;;;5057736;28;20205;-81
2022/01/05 03:51:19;;;;;;;1.77;0.90;;;6.10;99.90;;;;;;5063954;28;20341;-86
2022/01/05 03:53:44;;;;;;;2.83;0.60;;;6.10;99.90;;;;;;5059124;28;20245;-87
2022/01/05 03:56:10;;;;;;;2.27;0.90;;;6.00;99.90;;;;;;5060348;28;20273;-85
2022/01/05 03:58:35;;;;;;;1.63;0.90;;;6.00;99.90;;;;;;5059911;28;20208;-86
2022/01/05 04:01:01;;;;;;;0.70;0.70;;;;;;;;;;5061259;28;20173;-86
2022/01/05 04:03:27;;;;;;;1.67;0.70;;;;;;;;;;5061948;28;20331;-86
2022/01/05 04:05:53;;;;;;;1.00;0.70;;;;;;;;;;5074747;28;20439;-83
2022/01/05 04:08:19;;;;;;;1.07;0.83;;;5.90;99.90;;;;;;5055394;28;20454;-84
2022/01/05 04:10:45;;;;;;;2.60;1.50;;;;;;;;;;5063988;28;20438;-84
2022/01/05 04:13:11;;;;;;;1.60;0.73;;;;;;;;;;5062323;28;20199;-84
2022/01/05 04:15:37;;;;;;;1.13;0.95;;;;;;;;;;5065978;28;20466;-84
2022/01/05 04:18:02;;;;;;;0.60;0.60;;;5.90;99.90;;;;;;5062263;28;20204;-84
2022/01/05 04:20:28;;;;;;;2.67;0.80;;;5.90;99.90;;;;;;5061999;28;20479;-83
2022/01/05 04:22:54;;;;;;;2.10;0.77;;;;;;;;;;5058187;28;20191;-85
2022/01/05 04:25:19;;;;;;;0.93;0.80;;;5.70;99.90;;;;;;5064212;28;20181;-83
2022/01/05 04:27:45;;;;;;;2.97;0.93;;;;;;;;;;5060839;28;20988;-87
2022/01/05 04:30:12;;;;;;;1.13;1.00;;;5.60;99.90;;;;;;5077788;28;20553;-85
2022/01/05 04:32:38;;;;;;;1.30;1.15;;;5.60;99.90;;;;;;5060010;28;20435;-87
2022/01/05 04:35:04;;;;;;;1.27;1.17;;;5.60;99.90;;;;;;5074714;28;20184;-87
2022/01/05 04:37:32;;;;;;;1.10;1.02;;;5.60;99.90;;;;;;5069892;28;20200;-85
2022/01/05 04:40:00;;;;;;;1.00;0.90;;;5.60;99.90;;;;;;5066544;28;20194;-86
2022/01/05 04:42:26;;;;;;;0.60;0.40;;;5.50;99.90;;;;;;5064957;28;20276;-85
2022/01/05 04:44:55;;;;;;;1.17;0.85;;;4.60;99.90;;;;;;5061024;28;20180;-84
2022/01/05 04:47:21;;;;;;;0.60;0.60;;;3.20;99.90;;;;;;5059704;28;20183;-84
2022/01/05 04:49:47;;;;;;;0.60;0.52;;;3.10;99.90;;;;;;5058656;28;20180;-85
2022/01/05 04:52:13;;;;;;;2.60;0.93;;;;;;;;;;5056338;28;20189;-83
2022/01/05 04:54:39;;;;;;;0.63;0.63;;;;;;;;;;5054507;28;20181;-86
2022/01/05 04:57:06;;;;;;;0.77;0.60;;;;;;;;;;5060408;28;20462;-83
2022/01/05 04:59:32;;;;;;;1.30;1.20;;;2.30;99.90;;;;;;5065582;28;20467;-84
2022/01/05 05:01:58;;;;;;;2.22;1.60;;;2.20;99.90;;;;;;5060844;28;20212;-86
2022/01/05 05:04:23;;;;;;;2.50;1.80;;;2.10;99.90;;;;;;5063001;28;20200;-85
2022/01/05 05:06:50;;;;;;;2.40;2.07;;;;;;;;;;5056071;28;20252;-88
2022/01/05 05:09:16;;;;;;;1.75;1.65;;;2.00;99.90;;;;;;5065194;28;20196;-86
2022/01/05 05:11:42;;;;;;;3.08;2.75;;;1.90;99.90;;;;;;5063910;28;21910;-83
2022/01/05 05:14:09;;;;;;;1.85;1.75;;;2.00;99.90;;;;;;5066147;28;20220;-85
2022/01/05 05:16:35;;;;;;;1.95;1.75;;;2.00;99.90;;;;;;5065660;22;20226;-87
2022/01/05 05:19:00;;;;;;;4.90;1.50;;;2.00;99.90;;;;;;5041524;28;20253;-87
2022/01/05 05:21:26;;;;;;;2.30;2.10;;;;;;;;;;5052447;28;20205;-87
2022/01/05 05:23:52;;;;;;;7.80;2.40;;;;;;;;;;5055096;28;20178;-85
2022/01/05 05:26:18;;;;;;;2.85;1.85;;;2.10;99.90;;;;;;5037365;28;20462;-90
2022/01/05 05:28:44;;;;;;;3.30;2.03;;;;;;;;;;5044627;28;20182;-88
2022/01/05 05:31:10;;;;;;;2.43;1.40;;;;;;;;;;5043082;28;20221;-87
2022/01/05 05:33:36;;;;;;;2.95;2.00;;;;;;;;;;5029184;28;20451;-88
2022/01/05 05:36:02;;;;;;;1.25;1.00;;;2.30;99.90;;;;;;5034200;28;20232;-87
2022/01/05 05:38:28;;;;;;;2.03;1.55;;;2.30;99.90;;;;;;5022248;28;20189;-89
2022/01/05 05:40:54;;;;;;;1.23;1.13;;;;;;;;;;5029998;28;20247;-85
2022/01/05 05:43:20;;;;;;;1.85;1.63;;;2.30;99.90;;;;;;5026743;28;20437;-88
2022/01/05 05:45:46;;;;;;;2.00;1.47;;;;;;;;;;5022476;28;20228;-85
2022/01/05 05:48:12;;;;;;;3.35;1.73;;;2.40;99.90;;;;;;5025192;28;20188;-90
2022/01/05 05:50:37;;;;;;;2.50;1.53;;;;;;;;;;5026956;28;20317;-86
2022/01/05 05:53:04;;;;;;;2.00;1.80;;;;;;;;;;5025726;28;20822;-88
2022/01/05 05:55:29;;;;;;;3.30;1.30;;;2.40;99.90;;;;;;5030686;28;20503;-86
2022/01/05 05:57:55;;;;;;;3.03;2.07;;;2.40;99.90;;;;;;5031720;28;20186;-85
2022/01/05 06:00:21;;;;;;;2.83;2.40;;;2.50;99.90;;;;;;5030940;28;20427;-87
2022/01/05 06:02:47;;;;;;;4.40;3.20;;;3.80;99.90;;;;;;5026173;28;20245;-87
2022/01/05 06:05:13;;;;;;;2.78;1.95;;;;;;;;;;5022663;28;20245;-85
2022/01/05 06:07:39;;;;;;;3.20;2.25;;;2.50;99.90;;;;;;5039331;28;20675;-89
2022/01/05 06:10:05;;;;;;;2.53;1.70;;;2.50;99.90;;;;;;5025828;28;20237;-87
2022/01/05 06:12:31;;;;;;;4.20;2.88;;;2.50;99.90;;;;;;5041182;28;20309;-85
2022/01/05 06:14:57;;;;;;;2.20;1.93;;;;;;;;;;5048923;28;20236;-89
2022/01/05 06:17:22;;;;;;;3.10;2.40;;;;;;;;;;5021949;28;20273;-88
2022/01/05 06:19:49;;;;;;;4.77;2.27;;;;;;;;;;5029744;28;20945;-89
2022/01/05 06:22:14;;;;;;;2.10;1.85;;;2.50;99.90;;;;;;5033483;28;20436;-88
2022/01/05 06:24:42;;;;;;;2.63;2.43;;;;;;;;;;5026252;28;20178;-89
2022/01/05 06:27:09;;;;;;;3.72;2.38;;;2.50;99.90;;;;;;5039124;28;20198;-90
2022/01/05 06:29:36;;;;;;;3.58;1.95;;;2.50;99.90;;;;;;5021315;28;20213;-85
2022/01/05 06:32:02;;;;;;;3.20;1.90;;;2.50;99.90;;;;;;5022310;28;20196;-91
2022/01/05 06:34:28;;;;;;;1.40;1.23;;;2.60;99.90;;;;;;5025815;28;20178;-89
2022/01/05 06:36:53;;;;;;;1.07;1.00;;;2.60;99.90;;;;;;5039160;28;20506;-88
2022/01/05 06:39:19;;;;;;;3.97;1.70;;;;;;;;;;5039465;28;20186;-88
2022/01/05 06:41:45;;;;;;;4.10;1.37;;;;;;;;;;5035717;28;20190;-86
2022/01/05 06:44:11;;;;;;;3.67;1.60;;;;;;;;;;5025173;28;20439;-88
2022/01/05 06:46:37;;;;;;;1.90;1.30;;;;;;;;;;5017982;28;20202;-87
2022/01/05 06:49:03;;;;;;;1.50;1.08;;;2.40;99.90;;;;;;5031800;28;21008;-86
2022/01/05 06:51:29;;;;;;;1.90;1.47;;;;;;;;;;5020704;28;20179;-87
2022/01/05 06:53:56;;;;;;;4.03;1.27;;;2.40;99.90;;;;;;5032787;28;20190;-88
2022/01/05 06:56:21;;;;;;;2.13;1.25;;;2.40;99.90;;;;;;5022859;28;20288;-86
2022/01/05 06:58:48;;;;;;;3.17;1.83;;;;;;;;;;5040940;28;20284;-85
2022/01/05 07:01:13;;;;;;;1.42;1.33;;;2.40;99.90;;;;;;5033134;28;21166;-89
2022/01/05 07:03:39;;;;;;;3.90;2.13;;;;;;;;;;5016616;28;20190;-89
2022/01/05 07:06:05;;;;;;;4.23;1.73;;;;;;;;;;5035392;28;20471;-87
2022/01/05 07:08:31;;;;;;;2.70;1.00;;;2.40;99.90;;;;;;5022092;28;20453;-89
2022/01/05 07:10:56;;;;;;;2.27;1.27;;;2.40;99.90;;;;;;5037744;28;20481;-86
2022/01/05 07:13:22;;;;;;;2.53;0.70;;;;;;;;;;5038764;28;20185;-88
2022/01/05 07:15:50;;;;;;;1.13;1.03;;;2.10;99.90;;;;;;5022197;28;20328;-88
2022/01/05 07:18:16;;;;;;;1.40;0.85;;;2.10;99.90;;;;;;5025032;28;20567;-87
2022/01/05 07:20:42;;;;;;;0.77;0.60;;;1.90;99.90;;;;;;5021754;28;20281;-89
2022/01/05 07:23:08;;;;;;;1.20;0.65;;;1.90;99.90;;;;;;5033080;28;20175;-86
2022/01/05 07:25:34;;;;;;;2.10;0.73;;;1.80;99.90;;;;;;5037994;28;20275;-87
2022/01/05 07:28:00;;;;;;;1.23;0.80;;;;;;;;;;5025819;28;20277;-90
2022/01/05 07:30:25;;;;;;;2.50;1.53;;;1.90;99.90;;;;;;5021181;28;20189;-87
2022/01/05 07:32:52;;;;;;;2.00;1.07;;;1.80;99.90;;;;;;5023353;28;20509;-86
2022/01/05 07:35:18;;;;;;;1.02;0.90;;;1.70;99.90;;;;;;5031956;28;20206;-87
2022/01/05 07:37:44;;;;;;;3.37;1.70;;;;;;;;;;5023714;28;20220;-90
2022/01/05 07:40:10;;;;;;;3.15;1.30;;;1.70;99.90;;;;;;5019496;28;20193;-88
2022/01/05 07:42:36;;;;;;;2.83;1.80;;;1.70;99.90;;;;;;5040769;28;20186;-86
2022/01/05 07:45:03;;;;;;;3.93;2.10;;;1.80;99.90;;;;;;5042847;28;20209;-86
2022/01/05 07:47:29;;;;;;;1.90;1.35;;;1.70;99.90;;;;;;5036157;28;20460;-87
2022/01/05 07:49:54;;;;;;;3.50;1.60;;;1.80;99.90;;;;;;5021468;28;20182;-89
2022/01/05 07:52:20;;;;;;;3.90;1.60;;;1.80;99.90;;;;;;5018466;28;20178;-87
2022/01/05 07:54:46;;;;;;;2.60;2.07;;;;;;;;;;5020507;28;21116;-88
2022/01/05 07:57:12;;;;;;;1.40;1.30;;;1.60;99.90;;;;;;5032449;28;20555;-87
2022/01/05 07:59:37;;;;;;;3.03;1.23;;;1.70;99.90;;;;;;5014187;28;20276;-85
2022/01/05 08:02:03;;;;;;;2.73;1.47;;;1.60;99.90;;;;;;5042453;28;20289;-85
2022/01/05 08:04:29;;;;;;;14.33;2.63;;;;;;;;;;5025403;28;20174;-86
2022/01/05 08:06:55;;;;;;;3.47;1.97;;;;;;;;;;5012042;28;20453;-89
2022/01/05 08:09:21;;;;;;;4.27;1.43;;;;;;;;;;5015700;28;20471;-85
2022/01/05 08:11:47;;;;;;;2.60;1.57;;;1.50;99.90;;;;;;5014079;28;20465;-86
2022/01/05 08:14:12;;;;;;;3.43;1.23;;;;;;;;;;5033649;28;20438;-87
2022/01/05 08:16:39;;;;;;;4.13;1.60;;;;;;;;;;5025295;28;20248;-87
2022/01/05 08:19:05;;;;;;;2.83;1.15;;;1.60;99.90;;;;;;5021064;28;20440;-88
2022/01/05 08:21:31;;;;;;;2.27;1.57;;;;;;;;;;5021518;28;20183;-84
2022/01/05 08:23:56;;;;;;;3.83;2.45;;;1.60;99.90;;;;;;5047141;28;20178;-88
2022/01/05 08:26:22;;;;;;;12.67;1.87;;;;;;;;;;5048112;28;20205;-83
2022/01/05 08:28:48;;;;;;;5.53;1.50;;;1.50;99.90;;;;;;5026009;28;20215;-86
2022/01/05 08:31:14;;;;;;;11.60;2.37;;;;;;;;;;5021084;28;20280;-88
2022/01/05 08:33:40;;;;;;;4.33;1.50;;;;;;;;;;5035613;28;20185;-89
2022/01/05 08:36:06;;;;;;;9.80;2.05;;;1.40;99.90;;;;;;5025139;28;20460;-88
2022/01/05 08:38:32;;;;;;;3.40;1.63;;;;;;;;;;5036585;28;20179;-88
2022/01/05 08:40:58;;;;;;;9.88;2.42;;;1.60;99.90;;;;;;5024605;28;20429;-89
2022/01/05 08:43:34;;;;;;;21.20;3.17;;;1.60;99.90;;;;;;5021920;28;20202;-87
2022/01/05 08:46:10;;;;;;;9.20;2.53;;;1.60;99.90;;;;;;5019158;28;20206;-89
2022/01/05 08:48:50;;;;;;;4.13;2.50;;;1.70;99.90;;;;;;5036659;28;20283;-89
2022/01/05 08:51:16;;;;;;;8.55;2.40;;;;;;;;;;5035502;28;20201;-89
2022/01/05 08:53:42;;;;;;;3.03;1.92;;;;;;;;;;5016350;28;20186;-89
2022/01/05 08:56:08;;;;;;;3.00;2.38;;;1.90;99.90;;;;;;5011366;28;20206;-89
2022/01/05 08:58:34;;;;;;;15.47;3.03;;;;;;;;;;5011355;28;20224;-89
2022/01/05 09:01:00;;;;;;;4.80;2.33;;;;;;;;;;5020950;28;20429;-83
2022/01/05 09:03:27;;;;;;;6.30;2.40;;;2.00;99.90;;;;;;5021350;28;20452;-88
2022/01/05 09:05:52;;;;;;;2.78;1.95;;;1.90;99.90;;;;;;5030735;28;20273;-89
2022/01/05 09:08:29;;;;;;;3.43;1.90;;;2.00;99.90;;;;;;5017361;28;20744;-86
2022/01/05 09:11:22;;;;;;;3.55;1.30;;;2.00;99.90;;;;;;5040103;28;20247;-88
2022/01/05 09:13:55;;;;;;;1.77;1.17;;;2.10;99.90;;;;;;5020741;28;20186;-93
2022/01/05 09:19:36;;;;;;;6.22;1.52;;;2.10;99.90;;;;;;5020521;28;20189;-87
2022/01/05 09:22:02;;;;;;;5.60;1.80;;;;;;;;;;5024981;28;20223;-88
2022/01/05 09:24:28;;;;;;;5.22;1.50;;;2.10;99.90;;;;;;5036259;28;20815;-88
2022/01/05 09:26:57;;;;;;;5.33;2.00;;;;;;;;;;5021030;28;20323;-87
2022/01/05 09:29:23;;;;;;;14.93;1.35;;;2.20;99.90;;;;;;5017505;28;20184;-85
2022/01/05 09:31:50;;;;;;;7.75;1.60;;;2.30;99.90;;;;;;5035832;28;20673;-89
2022/01/05 09:34:20;;;;;;;4.25;1.40;;;2.30;99.90;;;;;;5024583;28;20194;-89
2022/01/05 09:36:50;;;;;;;2.42;1.35;;;;;;;;;;5017433;28;20696;-87
2022/01/05 09:42:00;;;;;;;21.92;1.92;;;2.60;99.90;;;;;;5016763;28;20334;-89
2022/01/05 09:44:29;;;;;;;4.93;1.53;;;2.80;99.90;;;;;;5025794;28;20178;-91
2022/01/05 09:47:17;;;;;;;7.68;0.90;;;2.70;99.90;;;;;;5026596;28;20456;-89
2022/01/05 09:50:03;;;;;;;4.65;1.50;;;2.50;99.90;;;;;;5021542;28;20209;-89
2022/01/05 09:52:31;;;;;;;9.00;2.45;;;2.30;99.90;;;;;;5010798;28;20180;-88
2022/01/05 09:54:57;;;;;;;2.70;1.40;;;2.20;99.90;;;;;;5011000;28;20244;-90
2022/01/05 09:57:23;;;;;;;3.50;1.30;;;2.10;99.90;;;;;;5024615;28;22179;-86
2022/01/05 09:59:51;;;;;;;3.80;1.23;;;2.10;99.90;;;;;;5029038;28;20437;-86
2022/01/05 10:02:17;;;;;;;4.13;1.00;;;1.90;99.90;;;;;;5014355;28;20238;-86
2022/01/05 10:04:44;;;;;;;7.60;1.13;;;1.90;99.90;;;;;;5009569;28;20190;-86
2022/01/05 10:07:10;;;;;;;7.88;1.35;;;2.10;99.90;;;;;;5009871;28;20210;-89
2022/01/05 10:09:37;;;;;;;6.55;1.70;;;1.40;99.90;;;;;;4998323;28;22242;-90
2022/01/05 10:12:04;;;;;;;4.90;2.25;;;;;;;;;;5015167;28;21361;-85
2022/01/05 10:14:30;;;;;;;3.00;1.23;;;2.00;99.90;;;;;;4996957;28;20197;-85
2022/01/05 10:17:04;;;;;;;5.38;2.00;;;2.00;99.90;;;;;;4996994;28;20209;-87
2022/01/05 10:19:29;;;;;;;2.30;1.20;;;2.40;99.90;;;;;;5031192;28;20190;-89
2022/01/05 10:21:57;;;;;;;1.97;1.00;;;;;;;;;;5019001;28;20177;-85
2022/01/05 10:24:45;;;;;;;9.70;1.27;;;2.30;99.90;;;;;;5018011;28;20728;-87
2022/01/05 10:27:24;;;;;;;10.93;1.75;;;2.30;99.90;;;;;;5022008;28;20206;-88
2022/01/05 10:30:02;;;;;;;5.85;1.25;;;2.40;99.90;;;;;;5023269;28;20190;-89
2022/01/05 10:32:33;;;;;;;8.52;2.28;;;2.30;99.90;;;;;;5023912;28;20208;-91
2022/01/05 10:35:14;;;;;;;6.68;1.80;;;2.50;99.90;;;;;;5020363;28;20221;-85
2022/01/05 10:37:43;;;;;;;3.05;1.73;;;2.50;99.90;;;;;;5016119;28;20292;-87
2022/01/05 10:40:19;;;;;;;7.93;2.22;;;2.40;99.90;;;;;;5019031;28;20261;-88
2022/01/05 10:42:53;;;;;;;8.57;1.70;;;2.50;99.90;;;;;;5021169;28;20181;-89
2022/01/05 10:45:21;;;;;;;10.00;2.33;;;2.50;99.90;;;;;;5018342;28;20761;-88
2022/01/05 10:48:07;;;;;;;7.10;1.60;;;2.50;99.90;;;;;;5031690;28;20192;-88
2022/01/05 10:50:34;;;;;;;4.47;2.33;;;2.60;99.90;;;;;;5022008;28;20242;-89
2022/01/05 10:53:00;;;;;;;3.97;1.65;;;2.50;99.90;;;;;;5028104;28;20178;-88
2022/01/05 10:55:29;;;;;;;5.22;1.55;;;2.40;99.90;;;;;;5029563;28;20284;-88
2022/01/05 10:57:57;;;;;;;13.13;2.88;;;2.40;99.90;;;;;;5033219;28;20193;-88
2022/01/05 11:00:36;;;;;;;6.40;1.70;;;2.40;99.90;;;;;;5036863;28;20648;-89
2022/01/05 11:03:18;;;;;;;6.43;2.80;;;2.50;99.90;;;;;;5012727;28;20181;-88
2022/01/05 11:05:59;;;;;;;3.35;1.75;;;2.60;99.90;;;;;;5019162;28;20205;-89
2022/01/05 11:08:25;;;;;;;6.28;2.33;;;2.70;99.90;;;;;;5026712;28;20220;-89
2022/01/05 11:10:51;;;;;;;6.37;3.30;;;;;;;;;;5031040;28;20186;-89
2022/01/05 11:13:17;;;;;;;6.47;1.87;;;;;;;;;;5038443;28;20480;-91
2022/01/05 11:15:42;;;;;;;6.32;2.83;;;2.70;99.90;;;;;;5017744;28;20503;-86
2022/01/05 11:18:20;;;;;;;4.93;2.00;;;2.70;99.90;;;;;;5021421;28;20218;-90
2022/01/05 11:20:57;;;;;;;6.97;2.83;;;2.70;99.90;;;;;;5016467;28;20891;-90
2022/01/05 11:23:24;;;;;;;6.45;2.47;;;2.80;99.90;;;;;;5025354;28;20173;-91
2022/01/05 11:25:52;;;;;;;3.42;1.85;;;2.70;99.90;;;;;;5043420;28;20201;-89
2022/01/05 11:28:19;;;;;;;5.00;3.30;;;2.60;99.90;;;;;;5018528;28;20202;-88
2022/01/05 11:30:46;;;;;;;3.70;1.95;;;2.60;99.90;;;;;;5022571;28;20252;-89
2022/01/05 11:33:14;;;;;;;4.20;1.80;;;2.40;99.90;;;;;;5018079;28;20213;-90
2022/01/05 11:35:41;;;;;;;6.68;2.40;;;2.50;99.90;;;;;;5022529;28;20194;-89
2022/01/05 11:38:11;;;;;;;2.53;1.27;;;2.40;99.90;;;;;;5036515;28;20689;-88
2022/01/05 11:40:45;;;;;;;12.85;2.05;;;2.30;99.90;;;;;;5025844;28;20664;-88
2022/01/05 11:43:19;;;;;;;7.00;2.20;;;2.30;99.90;;;;;;5036425;28;21758;-85
2022/01/05 11:45:47;;;;;;;5.32;2.17;;;2.40;99.90;;;;;;5037020;28;20205;-89
2022/01/05 11:48:20;;;;;;;9.13;2.42;;;2.40;99.90;;;;;;5029202;28;20276;-89
2022/01/05 11:50:59;;;;;;;10.13;2.20;;;2.40;99.90;;;;;;5008289;28;20273;-85
2022/01/05 11:53:34;;;;;;;6.53;2.08;;;2.40;99.90;;;;;;5022835;28;20189;-89
2022/01/05 11:55:59;;;;;;;13.55;2.22;;;2.40;99.90;;;;;;5011408;28;20695;-86
2022/01/05 11:58:31;;;;;;;2.83;1.90;;;2.20;99.90;;;;;;5009228;28;20209;-84
2022/01/05 12:01:12;;;;;;;5.88;2.50;;;2.30;99.90;;;;;;5025599;28;20187;-83
2022/01/05 12:03:50;;;;;;;11.68;3.30;;;2.30;99.90;;;;;;5016664;28;20190;-85
2022/01/05 12:06:16;;;;;;;6.93;1.92;;;2.40;99.90;;;;;;5018442;28;21362;-87
2022/01/05 12:08:49;;;;;;;5.90;2.97;;;2.40;99.90;;;;;;5030130;28;21591;-90
2022/01/05 12:11:34;;;;;;;7.93;2.35;;;2.40;99.90;;;;;;5009123;28;20690;-89
2022/01/05 12:14:06;;;;;;;7.75;2.35;;;2.50;99.90;;;;;;5025609;28;20255;-85
2022/01/05 12:17:00;;;;;;;6.35;1.95;;;2.60;99.90;;;;;;5018469;28;20233;-85
2022/01/05 12:19:56;;;;;;;2.95;2.00;;;2.60;99.90;;;;;;5012289;28;20169;-88
2022/01/05 12:22:23;;;;;;;2.58;1.50;;;2.60;99.90;;;;;;5020392;28;20233;-88
2022/01/05 12:25:03;;;;;;;10.43;2.17;;;2.60;99.90;;;;;;5018348;28;20592;-89
2022/01/05 12:27:37;;;;;;;5.03;2.17;;;2.50;99.90;;;;;;5018884;28;23250;-89
2022/01/05 12:30:23;;;;;;;2.85;1.80;;;2.70;99.90;;;;;;5013403;28;20267;-89
2022/01/05 12:33:02;;;;;;;7.50;2.75;;;2.80;99.90;;;;;;5029161;28;20966;-90
2022/01/05 12:35:43;;;;;;;6.25;1.63;;;2.50;99.90;;;;;;5020155;28;20197;-90
2022/01/05 12:38:09;;;;;;;11.40;1.50;;;2.50;99.90;;;;;;5015176;28;20186;-91
2022/01/05 12:40:35;;;;;;;4.93;1.60;;;2.40;99.90;;;;;;5013446;28;20182;-89
2022/01/05 12:43:10;;;;;;;4.00;2.22;;;2.50;99.90;;;;;;5034651;28;20173;-90
2022/01/05 12:45:49;;;;;;;7.40;1.67;;;2.60;99.90;;;;;;5027758;28;21023;-91
2022/01/05 12:48:55;;;;;;;5.28;1.88;;;2.70;99.90;;;;;;5019352;28;20186;-90
2022/01/05 12:51:49;;;;;;;6.47;1.40;;;2.60;99.90;;;;;;5030314;28;20197;-91
2022/01/05 12:54:41;;;;;;;9.68;2.70;;;2.60;99.90;;;;;;5008192;28;20695;-90
2022/01/05 12:57:09;;;;;;;11.00;2.35;;;2.50;99.90;;;;;;5044502;22;20224;-89
2022/01/05 12:59:46;;;;;;;9.98;2.05;;;2.80;99.90;;;;;;5036289;28;20206;-92
2022/01/05 13:02:23;;;;;;;10.73;2.33;;;2.70;99.90;;;;;;5030780;28;20189;-88
2022/01/05 13:05:30;;;;;;;9.52;2.28;;;2.70;99.90;;;;;;5032020;28;20852;-91
2022/01/05 13:07:56;;;;;;;7.05;2.50;;;2.10;99.90;;;;;;5050834;28;20173;-90
2022/01/05 13:10:26;;;;;;;7.53;2.03;;;;;;;;;;5035682;28;20186;-88
2022/01/05 13:12:56;;;;;;;5.38;1.77;;;2.50;99.90;;;;;;5031651;28;20190;-88
2022/01/05 13:15:24;;;;;;;6.10;2.15;;;2.50;99.90;;;;;;5032177;28;20293;-85
2022/01/05 13:17:53;;;;;;;8.52;2.25;;;2.60;99.90;;;;;;5021385;28;20189;-81
2022/01/05 13:20:19;;;;;;;7.10;1.88;;;2.10;99.90;;;;;;5016888;28;20924;-82
2022/01/05 13:22:51;;;;;;;6.90;2.10;;;2.70;99.90;;;;;;5019656;28;20216;-83
2022/01/05 13:25:22;;;;;;;2.00;1.23;;;2.80;99.90;;;;;;5014130;28;20545;-85
2022/01/05 13:27:50;;;;;;;6.45;1.50;;;2.80;99.90;;;;;;5027153;28;20251;-87
2022/01/05 13:30:21;;;;;;;3.45;1.33;;;2.90;99.90;;;;;;5039906;28;20239;-88
2022/01/05 13:32:49;;;;;;;6.65;3.45;;;2.70;99.90;;;;;;5029940;28;20193;-84
2022/01/05 13:35:28;;;;;;;2.83;1.33;;;2.70;99.90;;;;;;5023117;28;20269;-83